Capitan FAP Pedro Canga Rodriguez Airport
SPME : now visible

Airfield :











YOU CAN JOIN US ON...

 
LOGIN :

Register | Disclaimer

   EN    FR    IT 

 









Legend :    VFR   Marginal VFR   IFR   Intensive IFR   Very Intensive IFR
Visi :
Ceiling :
>= 8 km
>= 3000ft
5 to 8 km
1000 to 3000 ft
1500m to 5 km
500 to 1000 ft
800 to 1500m
200 to 500 ft
< 800m
< 200 ft
Symbols :   Thunderstorms  Fog  Heavy snow  Heavy precipitations  Wind > 20 kt






- Airport Elevation : 115 ft
- IATA code : TBP


SPME - Capitan FAP Pedro Canga Rodriguez

EXPIRED METARs :
  • 190300Z 19003KT 9999 SCT013 BKN017 29/22 Q1009 RMK BIRD HAZARD RWY 32/14 PP000

TAF TAF SPME
Valid from the 18 at 18:00 until the 19 at 18:00 UTC


181700Z 1818/1918 30011KT 9999 SCT040 TX33/1819Z TN23/1911Z
BECMG 1822/1824 27004KT SCT015 BKN020
BECMG 1908/1910 BKN012 BCMG 1914/1916 15008KT SCT015



MET'MAP, your aeronautical weather chart ! - Copyright ORBIFLY December 2007 - Disclaimer

ORBIFLY MET'MAP TEAM :

Programming & Development : Alexandra Zaïnal
Concept & original design : Baudouin d'Aumeries
Assistance for programming : Marc-Olivier Méhu
Technical & hardware support : Manuel Goepfert

Contact : metmap@orbifly.com




SOURCES & CREDITS :

   NOAA       Earth
Advisory